Altamont, South Dakota
Current Conditions -  °F | °C
As of 12:34 PM on Monday 22 Dec 2014 (Local Time) from KCNB Reporting Station
Drizzle Drizzle  
Wind Chill:   Ceiling: 700
Heat Index:   Visibility: 4mi
Dew Point:   Wind: 10mph
Humidity: 98%   Direction: 130°SE
Pressure: 29.44"   Gusts: NA
Location:  44.7895°N, 96.7201°W
Report Text: KCNB 221834Z AUTO 13009KT 4SM -DZ OVC007 04/04 A2944 RMK AO2 T00380035
Loading
Personal Weather Stations






























Interactive Weather Map New forecast layout! Learn more

10-Day Weather Forecast

Advertisements
Track Severe Weather on mobile